sensor_id;sensor_type;location;lat;lon;timestamp;pressure;altitude;pressure_sealevel;temperature;humidity
23281;BME280;11809;56.390;-3.266;2022-09-27T00:00:13;99656.47;;;15.70;57.46
23281;BME280;11809;56.390;-3.266;2022-09-27T00:02:40;99648.53;;;15.70;57.44
23281;BME280;11809;56.390;-3.266;2022-09-27T00:05:07;99641.53;;;15.69;57.40
23281;BME280;11809;56.390;-3.266;2022-09-27T00:07:34;99629.25;;;15.68;57.46
23281;BME280;11809;56.390;-3.266;2022-09-27T00:10:02;99626.81;;;15.65;57.68
23281;BME280;11809;56.390;-3.266;2022-09-27T00:12:29;99636.47;;;15.66;57.64
23281;BME280;11809;56.390;-3.266;2022-09-27T00:14:56;99626.09;;;15.63;57.65
23281;BME280;11809;56.390;-3.266;2022-09-27T00:17:23;99620.09;;;15.61;57.73
23281;BME280;11809;56.390;-3.266;2022-09-27T00:19:50;99623.59;;;15.61;57.55
23281;BME280;11809;56.390;-3.266;2022-09-27T00:22:16;99614.66;;;15.62;57.74
23281;BME280;11809;56.390;-3.266;2022-09-27T00:24:43;99615.75;;;15.60;57.75
23281;BME280;11809;56.390;-3.266;2022-09-27T00:27:10;99611.31;;;15.60;57.64
23281;BME280;11809;56.390;-3.266;2022-09-27T00:29:37;99610.34;;;15.61;57.72
23281;BME280;11809;56.390;-3.266;2022-09-27T00:32:04;99606.13;;;15.59;57.60
23281;BME280;11809;56.390;-3.266;2022-09-27T00:34:31;99605.38;;;15.57;57.84
23281;BME280;11809;56.390;-3.266;2022-09-27T00:36:58;99607.22;;;15.56;57.94
23281;BME280;11809;56.390;-3.266;2022-09-27T00:39:25;99602.03;;;15.55;57.84
23281;BME280;11809;56.390;-3.266;2022-09-27T00:41:52;99600.34;;;15.54;57.85
23281;BME280;11809;56.390;-3.266;2022-09-27T00:49:58;99595.28;;;15.51;57.99
23281;BME280;11809;56.390;-3.266;2022-09-27T00:55:12;99591.94;;;15.49;57.81
23281;BME280;11809;56.390;-3.266;2022-09-27T00:57:41;99595.53;;;15.48;58.21
23281;BME280;11809;56.390;-3.266;2022-09-27T01:00:11;99597.22;;;15.49;58.09
23281;BME280;11809;56.390;-3.266;2022-09-27T01:02:44;99596.47;;;15.47;58.21
23281;BME280;11809;56.390;-3.266;2022-09-27T01:05:15;99597.44;;;15.46;58.28
23281;BME280;11809;56.390;-3.266;2022-09-27T01:07:43;99590.31;;;15.46;58.20
23281;BME280;11809;56.390;-3.266;2022-09-27T01:10:11;99590.44;;;15.45;58.16
23281;BME280;11809;56.390;-3.266;2022-09-27T01:12:44;99588.72;;;15.44;58.18
23281;BME280;11809;56.390;-3.266;2022-09-27T01:38:29;99578.84;;;15.35;58.55
23281;BME280;11809;56.390;-3.266;2022-09-27T01:41:06;99573.78;;;15.32;58.49
23281;BME280;11809;56.390;-3.266;2022-09-27T01:43:47;99572.72;;;15.34;58.60
23281;BME280;11809;56.390;-3.266;2022-09-27T01:46:43;99573.78;;;15.32;58.61
23281;BME280;11809;56.390;-3.266;2022-09-27T01:49:17;99559.00;;;15.29;58.46
23281;BME280;11809;56.390;-3.266;2022-09-27T01:51:55;99569.44;;;15.31;58.58
23281;BME280;11809;56.390;-3.266;2022-09-27T01:54:29;99569.69;;;15.28;58.57
23281;BME280;11809;56.390;-3.266;2022-09-27T01:57:00;99565.13;;;15.30;58.40
23281;BME280;11809;56.390;-3.266;2022-09-27T01:59:55;99561.75;;;15.28;58.66
23281;BME280;11809;56.390;-3.266;2022-09-27T02:02:26;99569.69;;;15.28;58.59
23281;BME280;11809;56.390;-3.266;2022-09-27T02:04:57;99574.97;;;15.28;58.73
23281;BME280;11809;56.390;-3.266;2022-09-27T02:10:14;99555.84;;;15.24;58.59
23281;BME280;11809;56.390;-3.266;2022-09-27T02:12:51;99552.38;;;15.24;58.73
23281;BME280;11809;56.390;-3.266;2022-09-27T02:15:24;99556.72;;;15.25;58.94
23281;BME280;11809;56.390;-3.266;2022-09-27T02:18:01;99547.19;;;15.22;58.75
23281;BME280;11809;56.390;-3.266;2022-09-27T02:20:38;99540.31;;;15.19;58.80
23281;BME280;11809;56.390;-3.266;2022-09-27T02:23:40;99541.06;;;15.22;58.84
23281;BME280;11809;56.390;-3.266;2022-09-27T02:28:57;99529.00;;;15.17;58.87
23281;BME280;11809;56.390;-3.266;2022-09-27T02:31:25;99525.41;;;15.18;58.92
23281;BME280;11809;56.390;-3.266;2022-09-27T02:34:00;99538.75;;;15.17;58.94
23281;BME280;11809;56.390;-3.266;2022-09-27T02:36:28;99531.66;;;15.17;59.02
23281;BME280;11809;56.390;-3.266;2022-09-27T02:38:56;99515.06;;;15.15;58.91
23281;BME280;11809;56.390;-3.266;2022-09-27T02:41:22;99505.31;;;15.16;59.07
23281;BME280;11809;56.390;-3.266;2022-09-27T02:43:55;99498.22;;;15.16;59.03
23281;BME280;11809;56.390;-3.266;2022-09-27T03:05:21;99496.03;;;15.10;59.10
23281;BME280;11809;56.390;-3.266;2022-09-27T03:07:50;99499.63;;;15.09;59.08
23281;BME280;11809;56.390;-3.266;2022-09-27T03:10:25;99490.13;;;15.07;59.33
23281;BME280;11809;56.390;-3.266;2022-09-27T03:12:52;99483.91;;;15.08;59.26
23281;BME280;11809;56.390;-3.266;2022-09-27T03:15:20;99480.41;;;15.07;59.28
23281;BME280;11809;56.390;-3.266;2022-09-27T03:17:46;99484.84;;;15.07;59.07
23281;BME280;11809;56.390;-3.266;2022-09-27T03:20:13;99479.56;;;15.07;59.36
23281;BME280;11809;56.390;-3.266;2022-09-27T03:22:40;99484.97;;;15.05;59.36
23281;BME280;11809;56.390;-3.266;2022-09-27T03:25:08;99467.75;;;15.00;59.10
23281;BME280;11809;56.390;-3.266;2022-09-27T03:27:35;99477.03;;;15.05;59.26
23281;BME280;11809;56.390;-3.266;2022-09-27T03:30:02;99478.97;;;15.03;59.09
23281;BME280;11809;56.390;-3.266;2022-09-27T03:32:29;99481.47;;;15.05;59.34
23281;BME280;11809;56.390;-3.266;2022-09-27T03:34:57;99467.63;;;15.01;59.22
23281;BME280;11809;56.390;-3.266;2022-09-27T03:37:24;99462.34;;;15.01;59.63
23281;BME280;11809;56.390;-3.266;2022-09-27T03:39:52;99468.38;;;15.03;59.59
23281;BME280;11809;56.390;-3.266;2022-09-27T03:42:19;99456.09;;;15.02;59.30
23281;BME280;11809;56.390;-3.266;2022-09-27T03:44:46;99449.97;;;15.02;59.27
23281;BME280;11809;56.390;-3.266;2022-09-27T03:47:13;99453.56;;;15.01;59.57
23281;BME280;11809;56.390;-3.266;2022-09-27T03:49:40;99461.50;;;15.01;59.28
23281;BME280;11809;56.390;-3.266;2022-09-27T03:52:06;99454.63;;;14.98;59.62
23281;BME280;11809;56.390;-3.266;2022-09-27T03:54:33;99460.69;;;15.00;59.70
23281;BME280;11809;56.390;-3.266;2022-09-27T03:57:00;99465.97;;;15.00;59.39
23281;BME280;11809;56.390;-3.266;2022-09-27T03:59:27;99460.69;;;15.00;59.40
23281;BME280;11809;56.390;-3.266;2022-09-27T04:01:54;99455.63;;;14.97;59.37
23281;BME280;11809;56.390;-3.266;2022-09-27T04:04:21;99459.22;;;14.96;59.43
23281;BME280;11809;56.390;-3.266;2022-09-27T04:06:49;99460.91;;;14.97;59.60
23281;BME280;11809;56.390;-3.266;2022-09-27T04:09:16;99454.63;;;14.98;59.49
23281;BME280;11809;56.390;-3.266;2022-09-27T04:11:43;99450.31;;;14.97;59.61
23281;BME280;11809;56.390;-3.266;2022-09-27T04:14:10;99451.19;;;14.98;59.57
23281;BME280;11809;56.390;-3.266;2022-09-27T04:16:38;99440.69;;;14.96;59.67
23281;BME280;11809;56.390;-3.266;2022-09-27T04:19:08;99446.81;;;14.97;59.62
23281;BME280;11809;56.390;-3.266;2022-09-27T04:21:35;99445.13;;;14.96;59.59
23281;BME280;11809;56.390;-3.266;2022-09-27T04:24:02;99445.13;;;14.96;59.09
23281;BME280;11809;56.390;-3.266;2022-09-27T04:26:30;99433.72;;;14.95;59.44
23281;BME280;11809;56.390;-3.266;2022-09-27T04:28:57;99437.31;;;14.94;59.42
23281;BME280;11809;56.390;-3.266;2022-09-27T04:31:24;99434.69;;;14.94;59.40
23281;BME280;11809;56.390;-3.266;2022-09-27T04:33:51;99434.69;;;14.94;59.55
23281;BME280;11809;56.390;-3.266;2022-09-27T04:36:21;99425.06;;;14.93;59.43
23281;BME280;11809;56.390;-3.266;2022-09-27T04:38:55;99432.97;;;14.93;59.44
23281;BME280;11809;56.390;-3.266;2022-09-27T04:41:23;99432.03;;;14.94;59.26
23281;BME280;11809;56.390;-3.266;2022-09-27T04:43:51;99421.59;;;14.93;59.34
23281;BME280;11809;56.390;-3.266;2022-09-27T04:46:24;99424.34;;;14.91;59.45
23281;BME280;11809;56.390;-3.266;2022-09-27T04:48:51;99420.00;;;14.90;59.39
23281;BME280;11809;56.390;-3.266;2022-09-27T04:51:18;99418.09;;;14.92;59.27
23281;BME280;11809;56.390;-3.266;2022-09-27T04:53:46;99412.81;;;14.92;59.19
23281;BME280;11809;56.390;-3.266;2022-09-27T04:56:13;99407.50;;;14.92;59.26
23281;BME280;11809;56.390;-3.266;2022-09-27T04:58:41;99404.13;;;14.90;59.28
23281;BME280;11809;56.390;-3.266;2022-09-27T05:01:08;99403.31;;;14.90;59.35
23281;BME280;11809;56.390;-3.266;2022-09-27T05:03:36;99414.47;;;14.93;59.47
23281;BME280;11809;56.390;-3.266;2022-09-27T05:06:03;99407.50;;;14.92;59.72
23281;BME280;11809;56.390;-3.266;2022-09-27T05:08:30;99411.09;;;14.91;59.67
23281;BME280;11809;56.390;-3.266;2022-09-27T05:10:57;99407.03;;;14.87;57.98
23281;BME280;11809;56.390;-3.266;2022-09-27T05:13:24;99402.69;;;14.86;58.98
23281;BME280;11809;56.390;-3.266;2022-09-27T05:15:51;99404.38;;;14.87;59.14
23281;BME280;11809;56.390;-3.266;2022-09-27T05:18:18;99416.53;;;14.90;59.50
23281;BME280;11809;56.390;-3.266;2022-09-27T05:20:45;99411.97;;;14.92;59.71
23281;BME280;11809;56.390;-3.266;2022-09-27T05:23:12;99416.16;;;14.94;59.57
23281;BME280;11809;56.390;-3.266;2022-09-27T05:25:39;99408.09;;;14.96;59.92
23281;BME280;11809;56.390;-3.266;2022-09-27T05:28:08;99414.84;;;15.00;59.79
23281;BME280;11809;56.390;-3.266;2022-09-27T05:30:35;99407.75;;;15.00;59.64
23281;BME280;11809;56.390;-3.266;2022-09-27T05:33:02;99406.78;;;15.01;59.72
23281;BME280;11809;56.390;-3.266;2022-09-27T05:35:29;99414.63;;;15.03;60.10
23281;BME280;11809;56.390;-3.266;2022-09-27T05:37:58;99416.19;;;15.05;59.80
23281;BME280;11809;56.390;-3.266;2022-09-27T05:40:26;99418.69;;;15.07;59.83
23281;BME280;11809;56.390;-3.266;2022-09-27T05:43:10;99425.53;;;15.09;59.57
23281;BME280;11809;56.390;-3.266;2022-09-27T05:45:37;99418.47;;;15.10;59.57
23281;BME280;11809;56.390;-3.266;2022-09-27T05:48:04;99409.66;;;15.09;59.74
23281;BME280;11809;56.390;-3.266;2022-09-27T05:50:31;99417.38;;;15.12;59.64
23281;BME280;11809;56.390;-3.266;2022-09-27T05:52:58;99420.03;;;15.12;59.58
23281;BME280;11809;56.390;-3.266;2022-09-27T05:55:25;99410.53;;;15.10;59.67
23281;BME280;11809;56.390;-3.266;2022-09-27T05:58:00;99415.72;;;15.11;59.47
23281;BME280;11809;56.390;-3.266;2022-09-27T06:00:28;99408.59;;;15.12;59.56
23281;BME280;11809;56.390;-3.266;2022-09-27T06:02:57;99414.00;;;15.10;59.33
23281;BME280;11809;56.390;-3.266;2022-09-27T06:05:26;99407.78;;;15.11;59.46
23281;BME280;11809;56.390;-3.266;2022-09-27T06:07:59;99396.19;;;15.12;59.53
23281;BME280;11809;56.390;-3.266;2022-09-27T06:10:27;99396.19;;;15.12;59.37
23281;BME280;11809;56.390;-3.266;2022-09-27T06:13:01;99395.25;;;15.13;59.44
23281;BME280;11809;56.390;-3.266;2022-09-27T06:15:30;99391.75;;;15.13;59.32
23281;BME280;11809;56.390;-3.266;2022-09-27T06:18:03;99391.63;;;15.14;59.41
23281;BME280;11809;56.390;-3.266;2022-09-27T06:20:31;99388.03;;;15.15;59.34
23281;BME280;11809;56.390;-3.266;2022-09-27T06:23:10;99392.25;;;15.18;59.69
23281;BME280;11809;56.390;-3.266;2022-09-27T06:25:39;99393.09;;;15.18;59.98
23281;BME280;11809;56.390;-3.266;2022-09-27T06:28:06;99380.56;;;15.21;59.70
23281;BME280;11809;56.390;-3.266;2022-09-27T06:30:40;99379.38;;;15.13;58.18
23281;BME280;11809;56.390;-3.266;2022-09-27T06:33:11;99380.81;;;15.06;58.82
23281;BME280;11809;56.390;-3.266;2022-09-27T06:35:40;99379.13;;;15.05;58.90
23281;BME280;11809;56.390;-3.266;2022-09-27T06:38:10;99379.25;;;15.04;59.08
23281;BME280;11809;56.390;-3.266;2022-09-27T06:40:38;99376.72;;;15.02;59.38
23281;BME280;11809;56.390;-3.266;2022-09-27T06:43:07;99378.53;;;15.02;59.38
23281;BME280;11809;56.390;-3.266;2022-09-27T06:45:36;99370.72;;;15.00;59.66
23281;BME280;11809;56.390;-3.266;2022-09-27T06:48:04;99364.44;;;15.01;59.62
23281;BME280;11809;56.390;-3.266;2022-09-27T06:50:36;99358.91;;;15.04;59.67
23281;BME280;11809;56.390;-3.266;2022-09-27T06:53:04;99370.50;;;15.03;59.48
23281;BME280;11809;56.390;-3.266;2022-09-27T06:55:32;99357.25;;;15.03;59.45
23281;BME280;11809;56.390;-3.266;2022-09-27T06:58:00;99364.09;;;15.06;59.52
23281;BME280;11809;56.390;-3.266;2022-09-27T07:00:52;99363.97;;;15.07;59.57
23281;BME280;11809;56.390;-3.266;2022-09-27T07:03:20;99363.03;;;15.08;59.61
23281;BME280;11809;56.390;-3.266;2022-09-27T07:06:04;99363.75;;;15.10;59.53
23281;BME280;11809;56.390;-3.266;2022-09-27T07:08:32;99357.50;;;15.11;59.71
23281;BME280;11809;56.390;-3.266;2022-09-27T07:11:01;99357.34;;;15.13;59.84
23281;BME280;11809;56.390;-3.266;2022-09-27T07:13:29;99359.88;;;15.14;59.50
23281;BME280;11809;56.390;-3.266;2022-09-27T07:16:00;99359.88;;;15.14;59.94
23281;BME280;11809;56.390;-3.266;2022-09-27T07:18:27;99372.16;;;15.15;59.82
23281;BME280;11809;56.390;-3.266;2022-09-27T07:20:54;99359.75;;;15.16;59.80
23281;BME280;11809;56.390;-3.266;2022-09-27T07:23:26;99358.78;;;15.17;59.81
23281;BME280;11809;56.390;-3.266;2022-09-27T07:25:53;99370.22;;;15.17;59.83
23281;BME280;11809;56.390;-3.266;2022-09-27T07:28:20;99360.47;;;15.18;59.77
23281;BME280;11809;56.390;-3.266;2022-09-27T07:30:48;99364.81;;;15.19;59.85
23281;BME280;11809;56.390;-3.266;2022-09-27T07:33:15;99357.69;;;15.19;59.71
23281;BME280;11809;56.390;-3.266;2022-09-27T07:35:42;99359.63;;;15.17;59.81
23281;BME280;11809;56.390;-3.266;2022-09-27T07:38:10;99348.81;;;15.21;59.69
23281;BME280;11809;56.390;-3.266;2022-09-27T07:40:40;99354.09;;;15.21;59.75
23281;BME280;11809;56.390;-3.266;2022-09-27T07:43:07;99352.16;;;15.23;59.53
23281;BME280;11809;56.390;-3.266;2022-09-27T07:45:38;99355.66;;;15.23;59.79
23281;BME280;11809;56.390;-3.266;2022-09-27T07:48:06;99355.78;;;15.22;59.66
23281;BME280;11809;56.390;-3.266;2022-09-27T07:50:33;99345.91;;;15.24;59.46
23281;BME280;11809;56.390;-3.266;2022-09-27T07:53:00;99343.97;;;15.26;59.66
23281;BME280;11809;56.390;-3.266;2022-09-27T07:55:28;99344.97;;;15.25;59.57
23281;BME280;11809;56.390;-3.266;2022-09-27T07:58:02;99341.34;;;15.26;59.53
23281;BME280;11809;56.390;-3.266;2022-09-27T08:00:30;99345.69;;;15.27;59.74
23281;BME280;11809;56.390;-3.266;2022-09-27T08:02:56;99343.13;;;15.25;59.62
23281;BME280;11809;56.390;-3.266;2022-09-27T08:05:24;99348.19;;;15.28;59.56
23281;BME280;11809;56.390;-3.266;2022-09-27T08:07:54;99342.91;;;15.28;59.33
23281;BME280;11809;56.390;-3.266;2022-09-27T08:10:24;99339.41;;;15.28;59.29
23281;BME280;11809;56.390;-3.266;2022-09-27T08:12:58;99344.47;;;15.31;59.44
23281;BME280;11809;56.390;-3.266;2022-09-27T08:15:26;99345.06;;;15.34;59.28
23281;BME280;11809;56.390;-3.266;2022-09-27T08:17:54;99341.47;;;15.35;59.26
23281;BME280;11809;56.390;-3.266;2022-09-27T08:20:21;99340.47;;;15.36;59.22
23281;BME280;11809;56.390;-3.266;2022-09-27T08:22:48;99336.97;;;15.36;59.48
23281;BME280;11809;56.390;-3.266;2022-09-27T08:25:15;99341.47;;;15.35;59.51
23281;BME280;11809;56.390;-3.266;2022-09-27T08:27:43;99340.63;;;15.35;59.29
23281;BME280;11809;56.390;-3.266;2022-09-27T08:30:10;99342.16;;;15.37;59.19
23281;BME280;11809;56.390;-3.266;2022-09-27T08:32:37;99336.88;;;15.37;59.22
23281;BME280;11809;56.390;-3.266;2022-09-27T08:35:05;99342.03;;;15.39;59.19
23281;BME280;11809;56.390;-3.266;2022-09-27T08:37:33;99344.44;;;15.42;59.07
23281;BME280;11809;56.390;-3.266;2022-09-27T08:40:01;99337.34;;;15.42;59.26
23281;BME280;11809;56.390;-3.266;2022-09-27T08:42:47;99332.91;;;15.43;58.95
23281;BME280;11809;56.390;-3.266;2022-09-27T08:45:30;99327.59;;;15.43;59.01
23281;BME280;11809;56.390;-3.266;2022-09-27T08:48:00;99325.66;;;15.45;58.89
23281;BME280;11809;56.390;-3.266;2022-09-27T08:50:36;99320.38;;;15.45;59.07
23281;BME280;11809;56.390;-3.266;2022-09-27T08:55:43;99320.63;;;15.42;58.97
23281;BME280;11809;56.390;-3.266;2022-09-27T09:00:48;99315.31;;;15.42;58.95
23281;BME280;11809;56.390;-3.266;2022-09-27T09:03:18;99305.81;;;15.39;58.79
23281;BME280;11809;56.390;-3.266;2022-09-27T09:05:56;99303.88;;;15.41;58.48
23281;BME280;11809;56.390;-3.266;2022-09-27T09:18:01;99304.25;;;15.37;58.66
23281;BME280;11809;56.390;-3.266;2022-09-27T09:20:49;99291.03;;;15.37;58.51
23281;BME280;11809;56.390;-3.266;2022-09-27T09:23:31;99291.03;;;15.37;58.57
23281;BME280;11809;56.390;-3.266;2022-09-27T09:29:06;99294.63;;;15.36;58.93
23281;BME280;11809;56.390;-3.266;2022-09-27T09:34:21;99290.19;;;15.36;58.41
23281;BME280;11809;56.390;-3.266;2022-09-27T09:39:48;99298.50;;;15.32;58.63
23281;BME280;11809;56.390;-3.266;2022-09-27T09:42:24;99296.56;;;15.34;58.61
23281;BME280;11809;56.390;-3.266;2022-09-27T09:50:16;99288.59;;;15.45;60.36
23281;BME280;11809;56.390;-3.266;2022-09-27T09:52:49;99282.25;;;15.47;60.66
23281;BME280;11809;56.390;-3.266;2022-09-27T09:55:32;99289.09;;;15.50;60.08
23281;BME280;11809;56.390;-3.266;2022-09-27T09:58:10;99275.00;;;15.49;58.67
23281;BME280;11809;56.390;-3.266;2022-09-27T10:00:46;99290.31;;;15.46;58.66
23281;BME280;11809;56.390;-3.266;2022-09-27T10:03:16;99273.66;;;15.44;57.60
23281;BME280;11809;56.390;-3.266;2022-09-27T10:05:44;99281.75;;;15.42;55.95
23281;BME280;11809;56.390;-3.266;2022-09-27T10:08:17;99271.78;;;15.46;58.10
23281;BME280;11809;56.390;-3.266;2022-09-27T10:10:45;99274.19;;;15.49;58.96
23281;BME280;11809;56.390;-3.266;2022-09-27T10:13:19;99271.53;;;15.49;59.11
23281;BME280;11809;56.390;-3.266;2022-09-27T10:15:58;99265.97;;;15.52;59.51
23281;BME280;11809;56.390;-3.266;2022-09-27T10:18:28;99258.78;;;15.54;59.63
23281;BME280;11809;56.390;-3.266;2022-09-27T10:20:59;99257.53;;;15.58;59.79
23281;BME280;11809;56.390;-3.266;2022-09-27T10:23:27;99263.78;;;15.57;59.85
23281;BME280;11809;56.390;-3.266;2022-09-27T10:26:01;99266.19;;;15.60;59.55
23281;BME280;11809;56.390;-3.266;2022-09-27T10:28:37;99251.75;;;15.64;59.61
23281;BME280;11809;56.390;-3.266;2022-09-27T10:31:11;99256.19;;;15.63;59.78
23281;BME280;11809;56.390;-3.266;2022-09-27T10:33:52;99265.69;;;15.66;59.65
23281;BME280;11809;56.390;-3.266;2022-09-27T10:36:24;99258.59;;;15.66;59.67
23281;BME280;11809;56.390;-3.266;2022-09-27T10:38:57;99260.38;;;15.66;59.68
23281;BME280;11809;56.390;-3.266;2022-09-27T10:41:36;99272.91;;;15.64;59.38
23281;BME280;11809;56.390;-3.266;2022-09-27T10:46:54;99253.69;;;15.62;59.52
23281;BME280;11809;56.390;-3.266;2022-09-27T10:51:56;99257.88;;;15.64;58.63
23281;BME280;11809;56.390;-3.266;2022-09-27T10:54:27;99252.00;;;15.61;59.41
23281;BME280;11809;56.390;-3.266;2022-09-27T10:57:01;99252.44;;;15.66;59.39
23281;BME280;11809;56.390;-3.266;2022-09-27T10:59:35;99251.50;;;15.67;59.59
23281;BME280;11809;56.390;-3.266;2022-09-27T11:02:15;99250.75;;;15.65;59.75
23281;BME280;11809;56.390;-3.266;2022-09-27T11:05:09;99256.91;;;15.65;59.52
23281;BME280;11809;56.390;-3.266;2022-09-27T11:07:50;99259.44;;;15.67;59.36
23281;BME280;11809;56.390;-3.266;2022-09-27T11:10:30;99256.03;;;15.65;59.59
23281;BME280;11809;56.390;-3.266;2022-09-27T11:13:13;99253.16;;;15.68;59.45
23281;BME280;11809;56.390;-3.266;2022-09-27T11:29:56;99233.00;;;15.76;60.13
23281;BME280;11809;56.390;-3.266;2022-09-27T11:38:25;99223.84;;;15.81;60.21
23281;BME280;11809;56.390;-3.266;2022-09-27T11:44:20;99218.16;;;15.85;59.89
23281;BME280;11809;56.390;-3.266;2022-09-27T11:56:34;99228.94;;;15.93;59.48
23281;BME280;11809;56.390;-3.266;2022-09-27T12:10:03;99234.94;;;15.95;59.44
23281;BME280;11809;56.390;-3.266;2022-09-27T12:12:38;99228.53;;;15.98;59.37
23281;BME280;11809;56.390;-3.266;2022-09-27T12:15:19;99246.00;;;16.00;59.44
23281;BME280;11809;56.390;-3.266;2022-09-27T12:17:54;99255.38;;;16.04;58.98
23281;BME280;11809;56.390;-3.266;2022-09-27T12:20:24;99259.00;;;16.03;58.88
23281;BME280;11809;56.390;-3.266;2022-09-27T12:25:29;99261.91;;;16.00;58.69
23281;BME280;11809;56.390;-3.266;2022-09-27T12:28:13;99261.19;;;15.98;58.43
23281;BME280;11809;56.390;-3.266;2022-09-27T12:30:49;99265.53;;;15.99;58.39
23281;BME280;11809;56.390;-3.266;2022-09-27T12:33:48;99278.91;;;15.98;58.22
23281;BME280;11809;56.390;-3.266;2022-09-27T12:36:22;99275.28;;;15.99;58.32
23281;BME280;11809;56.390;-3.266;2022-09-27T12:38:59;99263.84;;;15.98;58.32
23281;BME280;11809;56.390;-3.266;2022-09-27T12:41:31;99270.84;;;15.99;58.06
23281;BME280;11809;56.390;-3.266;2022-09-27T12:44:02;99271.53;;;16.01;57.89
23281;BME280;11809;56.390;-3.266;2022-09-27T12:49:30;99269.44;;;16.05;57.73
23281;BME280;11809;56.390;-3.266;2022-09-27T12:52:07;99269.94;;;16.10;57.56
23281;BME280;11809;56.390;-3.266;2022-09-27T13:00:32;99262.72;;;16.21;57.23
23281;BME280;11809;56.390;-3.266;2022-09-27T13:14:23;99237.47;;;16.48;56.56
23281;BME280;11809;56.390;-3.266;2022-09-27T13:16:51;99234.31;;;16.54;56.27
23281;BME280;11809;56.390;-3.266;2022-09-27T13:19:40;99233.09;;;16.58;56.31
23281;BME280;11809;56.390;-3.266;2022-09-27T13:24:54;99230.72;;;16.64;56.10
23281;BME280;11809;56.390;-3.266;2022-09-27T13:35:39;99232.03;;;16.79;55.45
23281;BME280;11809;56.390;-3.266;2022-09-27T13:38:23;99235.25;;;16.83;55.26
23281;BME280;11809;56.390;-3.266;2022-09-27T13:40:50;99243.22;;;16.83;55.20
23281;BME280;11809;56.390;-3.266;2022-09-27T13:45:56;99254.94;;;16.80;54.96
23281;BME280;11809;56.390;-3.266;2022-09-27T13:53:55;99246.84;;;16.82;54.93
23281;BME280;11809;56.390;-3.266;2022-09-27T13:59:16;99249.66;;;16.90;54.99
23281;BME280;11809;56.390;-3.266;2022-09-27T14:02:26;99251.09;;;16.94;54.88
23281;BME280;11809;56.390;-3.266;2022-09-27T14:04:55;99254.16;;;16.99;54.58
23281;BME280;11809;56.390;-3.266;2022-09-27T14:07:33;99255.59;;;17.03;54.71
23281;BME280;11809;56.390;-3.266;2022-09-27T14:10:03;99250.28;;;17.03;54.60
23281;BME280;11809;56.390;-3.266;2022-09-27T14:12:33;99265.22;;;17.04;54.53
23281;BME280;11809;56.390;-3.266;2022-09-27T14:15:02;99256.97;;;17.07;54.51
23281;BME280;11809;56.390;-3.266;2022-09-27T14:17:30;99249.19;;;17.15;54.30
23281;BME280;11809;56.390;-3.266;2022-09-27T14:19:59;99246.94;;;17.20;54.23
23281;BME280;11809;56.390;-3.266;2022-09-27T14:22:27;99255.34;;;17.25;53.98
23281;BME280;11809;56.390;-3.266;2022-09-27T14:24:55;99246.94;;;17.30;54.00
23281;BME280;11809;56.390;-3.266;2022-09-27T14:27:24;99236.91;;;17.33;54.01
23281;BME280;11809;56.390;-3.266;2022-09-27T14:30:15;99241.66;;;17.39;54.16
23281;BME280;11809;56.390;-3.266;2022-09-27T14:32:48;99234.13;;;17.44;53.72
23281;BME280;11809;56.390;-3.266;2022-09-27T14:35:21;99238.31;;;17.47;53.35
23281;BME280;11809;56.390;-3.266;2022-09-27T14:38:13;99240.44;;;17.53;53.38
23281;BME280;11809;56.390;-3.266;2022-09-27T14:41:03;99253.59;;;17.54;53.26
23281;BME280;11809;56.390;-3.266;2022-09-27T14:43:30;99247.16;;;17.57;53.34
23281;BME280;11809;56.390;-3.266;2022-09-27T14:46:05;99261.28;;;17.58;53.27
23281;BME280;11809;56.390;-3.266;2022-09-27T14:48:36;99263.78;;;17.59;53.21
23281;BME280;11809;56.390;-3.266;2022-09-27T14:53:49;99276.41;;;17.67;53.34
23281;BME280;11809;56.390;-3.266;2022-09-27T14:56:19;99277.38;;;17.66;53.07
23281;BME280;11809;56.390;-3.266;2022-09-27T14:58:53;99280.03;;;17.66;52.99
23281;BME280;11809;56.390;-3.266;2022-09-27T15:01:22;99290.66;;;17.66;53.07
23281;BME280;11809;56.390;-3.266;2022-09-27T15:03:50;99295.97;;;17.66;52.75
23281;BME280;11809;56.390;-3.266;2022-09-27T15:06:19;99296.91;;;17.65;52.60
23281;BME280;11809;56.390;-3.266;2022-09-27T15:08:47;99306.84;;;17.63;52.65
23281;BME280;11809;56.390;-3.266;2022-09-27T15:11:18;99311.91;;;17.66;52.61
23281;BME280;11809;56.390;-3.266;2022-09-27T15:13:50;99319.88;;;17.66;52.75
23281;BME280;11809;56.390;-3.266;2022-09-27T15:16:21;99328.09;;;17.63;52.64
23281;BME280;11809;56.390;-3.266;2022-09-27T15:19:13;99328.97;;;17.63;52.76
23281;BME280;11809;56.390;-3.266;2022-09-27T15:21:43;99335.38;;;17.61;52.73
23281;BME280;11809;56.390;-3.266;2022-09-27T15:24:34;99336.22;;;17.61;52.58
23281;BME280;11809;56.390;-3.266;2022-09-27T15:27:03;99333.97;;;17.56;52.73
23281;BME280;11809;56.390;-3.266;2022-09-27T15:29:30;99330.03;;;17.51;52.71
23281;BME280;11809;56.390;-3.266;2022-09-27T15:32:06;99336.59;;;17.47;52.95
23281;BME280;11809;56.390;-3.266;2022-09-27T15:34:34;99338.53;;;17.45;52.72
23281;BME280;11809;56.390;-3.266;2022-09-27T15:37:03;99333.34;;;17.43;53.02
23281;BME280;11809;56.390;-3.266;2022-09-27T15:39:36;99337.00;;;17.42;52.78
23281;BME280;11809;56.390;-3.266;2022-09-27T15:42:11;99342.69;;;17.38;52.81
23281;BME280;11809;56.390;-3.266;2022-09-27T15:50:31;99341.88;;;17.37;52.89
23281;BME280;11809;56.390;-3.266;2022-09-27T15:52:59;99337.00;;;17.42;53.08
23281;BME280;11809;56.390;-3.266;2022-09-27T15:55:33;99338.66;;;17.43;53.39
23281;BME280;11809;56.390;-3.266;2022-09-27T15:58:26;99335.88;;;17.45;53.56
23281;BME280;11809;56.390;-3.266;2022-09-27T16:00:56;99335.03;;;17.44;53.81
23281;BME280;11809;56.390;-3.266;2022-09-27T16:03:25;99339.25;;;17.47;53.61
23281;BME280;11809;56.390;-3.266;2022-09-27T16:05:57;99333.94;;;17.47;53.65
23281;BME280;11809;56.390;-3.266;2022-09-27T16:08:25;99342.59;;;17.49;53.96
23281;BME280;11809;56.390;-3.266;2022-09-27T16:10:54;99342.75;;;17.47;53.24
23281;BME280;11809;56.390;-3.266;2022-09-27T16:13:23;99343.44;;;17.40;52.26
23281;BME280;11809;56.390;-3.266;2022-09-27T16:15:58;99346.78;;;17.32;51.84
23281;BME280;11809;56.390;-3.266;2022-09-27T16:18:25;99343.09;;;17.24;52.29